sensor_id;sensor_type;location;lat;lon;timestamp;P1;durP1;ratioP1;P2;durP2;ratioP2
3847;SDS011;1939;48.720;9.166;2023-07-20T00:02:20;6.37;;;2.47;;
3847;SDS011;1939;48.720;9.166;2023-07-20T00:04:45;5.77;;;2.60;;
3847;SDS011;1939;48.720;9.166;2023-07-20T00:07:11;3.53;;;2.63;;
3847;SDS011;1939;48.720;9.166;2023-07-20T00:09:36;5.90;;;3.27;;
3847;SDS011;1939;48.720;9.166;2023-07-20T00:12:01;4.23;;;2.37;;
3847;SDS011;1939;48.720;9.166;2023-07-20T00:14:26;8.03;;;2.53;;
3847;SDS011;1939;48.720;9.166;2023-07-20T00:16:52;7.23;;;2.53;;
3847;SDS011;1939;48.720;9.166;2023-07-20T00:19:27;6.57;;;2.83;;
3847;SDS011;1939;48.720;9.166;2023-07-20T00:21:52;4.30;;;2.30;;
3847;SDS011;1939;48.720;9.166;2023-07-20T00:24:18;4.60;;;3.00;;
3847;SDS011;1939;48.720;9.166;2023-07-20T00:26:43;12.13;;;3.93;;
3847;SDS011;1939;48.720;9.166;2023-07-20T00:29:09;3.80;;;2.77;;
3847;SDS011;1939;48.720;9.166;2023-07-20T00:31:34;9.97;;;3.33;;
3847;SDS011;1939;48.720;9.166;2023-07-20T00:34:02;5.47;;;2.90;;
3847;SDS011;1939;48.720;9.166;2023-07-20T00:36:27;6.20;;;3.40;;
3847;SDS011;1939;48.720;9.166;2023-07-20T00:38:52;5.90;;;2.30;;
3847;SDS011;1939;48.720;9.166;2023-07-20T00:41:17;5.50;;;2.67;;
3847;SDS011;1939;48.720;9.166;2023-07-20T00:43:42;4.50;;;2.63;;
3847;SDS011;1939;48.720;9.166;2023-07-20T00:46:08;11.33;;;2.50;;
3847;SDS011;1939;48.720;9.166;2023-07-20T00:48:34;4.20;;;2.77;;
3847;SDS011;1939;48.720;9.166;2023-07-20T00:50:59;2.70;;;2.07;;
3847;SDS011;1939;48.720;9.166;2023-07-20T00:53:25;5.20;;;2.80;;
3847;SDS011;1939;48.720;9.166;2023-07-20T00:55:51;6.00;;;2.93;;
3847;SDS011;1939;48.720;9.166;2023-07-20T00:58:16;5.37;;;2.90;;
3847;SDS011;1939;48.720;9.166;2023-07-20T01:00:41;5.23;;;2.57;;
3847;SDS011;1939;48.720;9.166;2023-07-20T01:03:07;4.40;;;2.70;;
3847;SDS011;1939;48.720;9.166;2023-07-20T01:05:39;5.50;;;3.30;;
3847;SDS011;1939;48.720;9.166;2023-07-20T01:08:16;5.17;;;2.80;;
3847;SDS011;1939;48.720;9.166;2023-07-20T01:10:59;9.20;;;3.33;;
3847;SDS011;1939;48.720;9.166;2023-07-20T01:13:28;7.85;;;3.45;;
3847;SDS011;1939;48.720;9.166;2023-07-20T01:15:57;5.13;;;2.80;;
3847;SDS011;1939;48.720;9.166;2023-07-20T01:18:24;5.83;;;3.47;;
3847;SDS011;1939;48.720;9.166;2023-07-20T01:20:49;4.70;;;3.10;;
3847;SDS011;1939;48.720;9.166;2023-07-20T01:23:26;6.43;;;2.83;;
3847;SDS011;1939;48.720;9.166;2023-07-20T01:25:58;6.40;;;3.03;;
3847;SDS011;1939;48.720;9.166;2023-07-20T01:31:24;5.03;;;3.43;;
3847;SDS011;1939;48.720;9.166;2023-07-20T01:33:50;4.07;;;3.13;;
3847;SDS011;1939;48.720;9.166;2023-07-20T01:36:19;4.87;;;2.77;;
3847;SDS011;1939;48.720;9.166;2023-07-20T01:38:45;3.40;;;2.53;;
3847;SDS011;1939;48.720;9.166;2023-07-20T01:41:11;7.63;;;3.80;;
3847;SDS011;1939;48.720;9.166;2023-07-20T01:43:36;11.90;;;3.23;;
3847;SDS011;1939;48.720;9.166;2023-07-20T01:46:01;3.30;;;2.10;;
3847;SDS011;1939;48.720;9.166;2023-07-20T01:48:27;7.27;;;3.10;;
3847;SDS011;1939;48.720;9.166;2023-07-20T01:50:52;3.43;;;3.07;;
3847;SDS011;1939;48.720;9.166;2023-07-20T01:53:17;4.23;;;2.70;;
3847;SDS011;1939;48.720;9.166;2023-07-20T01:55:42;6.13;;;3.30;;
3847;SDS011;1939;48.720;9.166;2023-07-20T01:58:08;7.33;;;3.50;;
3847;SDS011;1939;48.720;9.166;2023-07-20T02:00:33;4.77;;;3.10;;
3847;SDS011;1939;48.720;9.166;2023-07-20T02:02:58;3.93;;;2.80;;
3847;SDS011;1939;48.720;9.166;2023-07-20T02:05:23;6.63;;;3.00;;
3847;SDS011;1939;48.720;9.166;2023-07-20T02:07:49;4.93;;;2.63;;
3847;SDS011;1939;48.720;9.166;2023-07-20T02:10:14;5.07;;;3.10;;
3847;SDS011;1939;48.720;9.166;2023-07-20T02:12:40;8.20;;;2.97;;
3847;SDS011;1939;48.720;9.166;2023-07-20T02:15:05;5.33;;;3.13;;
3847;SDS011;1939;48.720;9.166;2023-07-20T02:17:30;4.50;;;3.10;;
3847;SDS011;1939;48.720;9.166;2023-07-20T02:19:56;5.73;;;3.10;;
3847;SDS011;1939;48.720;9.166;2023-07-20T02:22:22;3.70;;;2.80;;
3847;SDS011;1939;48.720;9.166;2023-07-20T02:24:48;5.13;;;3.47;;
3847;SDS011;1939;48.720;9.166;2023-07-20T02:27:14;7.73;;;3.30;;
3847;SDS011;1939;48.720;9.166;2023-07-20T02:29:40;6.10;;;3.43;;
3847;SDS011;1939;48.720;9.166;2023-07-20T02:32:05;4.30;;;3.00;;
3847;SDS011;1939;48.720;9.166;2023-07-20T02:34:31;4.83;;;3.10;;
3847;SDS011;1939;48.720;9.166;2023-07-20T02:36:56;5.43;;;2.83;;
3847;SDS011;1939;48.720;9.166;2023-07-20T02:39:24;4.37;;;2.60;;
3847;SDS011;1939;48.720;9.166;2023-07-20T02:41:49;4.67;;;3.40;;
3847;SDS011;1939;48.720;9.166;2023-07-20T02:44:14;8.50;;;3.03;;
3847;SDS011;1939;48.720;9.166;2023-07-20T02:46:39;3.97;;;3.00;;
3847;SDS011;1939;48.720;9.166;2023-07-20T02:49:05;5.93;;;3.80;;
3847;SDS011;1939;48.720;9.166;2023-07-20T02:51:30;4.77;;;3.30;;
3847;SDS011;1939;48.720;9.166;2023-07-20T02:53:55;3.77;;;2.50;;
3847;SDS011;1939;48.720;9.166;2023-07-20T02:56:20;4.50;;;2.70;;
3847;SDS011;1939;48.720;9.166;2023-07-20T02:58:46;4.37;;;2.83;;
3847;SDS011;1939;48.720;9.166;2023-07-20T03:01:11;4.80;;;3.70;;
3847;SDS011;1939;48.720;9.166;2023-07-20T03:03:37;3.73;;;2.70;;
3847;SDS011;1939;48.720;9.166;2023-07-20T03:06:07;7.77;;;3.07;;
3847;SDS011;1939;48.720;9.166;2023-07-20T03:08:34;6.03;;;3.20;;
3847;SDS011;1939;48.720;9.166;2023-07-20T03:11:00;5.20;;;2.97;;
3847;SDS011;1939;48.720;9.166;2023-07-20T03:13:26;4.50;;;2.90;;
3847;SDS011;1939;48.720;9.166;2023-07-20T03:15:52;4.20;;;2.50;;
3847;SDS011;1939;48.720;9.166;2023-07-20T03:18:17;4.43;;;2.87;;
3847;SDS011;1939;48.720;9.166;2023-07-20T03:20:42;7.00;;;2.87;;
3847;SDS011;1939;48.720;9.166;2023-07-20T03:23:07;3.97;;;2.60;;
3847;SDS011;1939;48.720;9.166;2023-07-20T03:25:33;5.07;;;2.87;;
3847;SDS011;1939;48.720;9.166;2023-07-20T03:27:58;8.53;;;2.80;;
3847;SDS011;1939;48.720;9.166;2023-07-20T03:30:23;2.80;;;2.40;;
3847;SDS011;1939;48.720;9.166;2023-07-20T03:32:49;3.53;;;2.33;;
3847;SDS011;1939;48.720;9.166;2023-07-20T03:35:14;5.37;;;2.93;;
3847;SDS011;1939;48.720;9.166;2023-07-20T03:37:40;5.17;;;2.90;;
3847;SDS011;1939;48.720;9.166;2023-07-20T03:40:06;13.17;;;3.53;;
3847;SDS011;1939;48.720;9.166;2023-07-20T03:42:32;6.93;;;3.37;;
3847;SDS011;1939;48.720;9.166;2023-07-20T03:44:57;4.50;;;2.73;;
3847;SDS011;1939;48.720;9.166;2023-07-20T03:47:23;8.07;;;3.40;;
3847;SDS011;1939;48.720;9.166;2023-07-20T03:49:49;4.33;;;3.03;;
3847;SDS011;1939;48.720;9.166;2023-07-20T03:52:14;6.13;;;3.30;;
3847;SDS011;1939;48.720;9.166;2023-07-20T03:54:39;10.10;;;4.10;;
3847;SDS011;1939;48.720;9.166;2023-07-20T03:57:05;6.40;;;3.07;;
3847;SDS011;1939;48.720;9.166;2023-07-20T03:59:30;4.40;;;2.57;;
3847;SDS011;1939;48.720;9.166;2023-07-20T04:01:55;5.13;;;3.20;;
3847;SDS011;1939;48.720;9.166;2023-07-20T04:04:20;5.40;;;2.93;;
3847;SDS011;1939;48.720;9.166;2023-07-20T04:06:46;6.67;;;3.60;;
3847;SDS011;1939;48.720;9.166;2023-07-20T04:09:11;6.40;;;3.40;;
3847;SDS011;1939;48.720;9.166;2023-07-20T04:11:36;2.77;;;2.47;;
3847;SDS011;1939;48.720;9.166;2023-07-20T04:14:02;4.83;;;2.80;;
3847;SDS011;1939;48.720;9.166;2023-07-20T04:16:27;4.90;;;2.70;;
3847;SDS011;1939;48.720;9.166;2023-07-20T04:18:54;9.90;;;3.63;;
3847;SDS011;1939;48.720;9.166;2023-07-20T04:21:19;6.00;;;3.03;;
3847;SDS011;1939;48.720;9.166;2023-07-20T04:23:44;4.40;;;2.77;;
3847;SDS011;1939;48.720;9.166;2023-07-20T04:26:10;4.80;;;3.40;;
3847;SDS011;1939;48.720;9.166;2023-07-20T04:28:37;12.73;;;3.70;;
3847;SDS011;1939;48.720;9.166;2023-07-20T04:31:09;8.57;;;4.93;;
3847;SDS011;1939;48.720;9.166;2023-07-20T04:33:35;5.80;;;3.07;;
3847;SDS011;1939;48.720;9.166;2023-07-20T04:36:00;4.00;;;3.03;;
3847;SDS011;1939;48.720;9.166;2023-07-20T04:38:25;7.73;;;3.40;;
3847;SDS011;1939;48.720;9.166;2023-07-20T04:40:51;4.73;;;3.20;;
3847;SDS011;1939;48.720;9.166;2023-07-20T04:43:17;7.30;;;2.93;;
3847;SDS011;1939;48.720;9.166;2023-07-20T04:45:42;4.70;;;2.67;;
3847;SDS011;1939;48.720;9.166;2023-07-20T04:48:11;9.93;;;3.30;;
3847;SDS011;1939;48.720;9.166;2023-07-20T04:50:42;5.40;;;3.20;;
3847;SDS011;1939;48.720;9.166;2023-07-20T04:53:17;4.83;;;3.20;;
3847;SDS011;1939;48.720;9.166;2023-07-20T04:55:47;6.07;;;3.30;;
3847;SDS011;1939;48.720;9.166;2023-07-20T04:58:15;6.97;;;2.80;;
3847;SDS011;1939;48.720;9.166;2023-07-20T05:00:59;10.77;;;2.40;;
3847;SDS011;1939;48.720;9.166;2023-07-20T05:03:24;7.70;;;3.13;;
3847;SDS011;1939;48.720;9.166;2023-07-20T05:05:49;4.80;;;3.10;;
3847;SDS011;1939;48.720;9.166;2023-07-20T05:08:15;4.00;;;2.87;;
3847;SDS011;1939;48.720;9.166;2023-07-20T05:10:43;4.93;;;2.90;;
3847;SDS011;1939;48.720;9.166;2023-07-20T05:13:09;7.97;;;2.77;;
3847;SDS011;1939;48.720;9.166;2023-07-20T05:18:46;9.87;;;3.00;;
3847;SDS011;1939;48.720;9.166;2023-07-20T05:21:12;5.37;;;3.00;;
3847;SDS011;1939;48.720;9.166;2023-07-20T05:23:38;4.43;;;2.90;;
3847;SDS011;1939;48.720;9.166;2023-07-20T05:26:03;10.83;;;3.30;;
3847;SDS011;1939;48.720;9.166;2023-07-20T05:28:28;4.40;;;2.70;;
3847;SDS011;1939;48.720;9.166;2023-07-20T05:30:54;4.00;;;2.77;;
3847;SDS011;1939;48.720;9.166;2023-07-20T05:33:19;8.50;;;2.60;;
3847;SDS011;1939;48.720;9.166;2023-07-20T05:35:45;3.40;;;2.63;;
3847;SDS011;1939;48.720;9.166;2023-07-20T05:38:10;5.30;;;2.50;;
3847;SDS011;1939;48.720;9.166;2023-07-20T05:40:39;7.50;;;2.80;;
3847;SDS011;1939;48.720;9.166;2023-07-20T05:43:05;5.77;;;2.97;;
3847;SDS011;1939;48.720;9.166;2023-07-20T05:45:30;4.77;;;2.50;;
3847;SDS011;1939;48.720;9.166;2023-07-20T05:47:55;11.30;;;2.80;;
3847;SDS011;1939;48.720;9.166;2023-07-20T05:50:20;3.37;;;2.73;;
3847;SDS011;1939;48.720;9.166;2023-07-20T05:52:46;5.20;;;3.17;;
3847;SDS011;1939;48.720;9.166;2023-07-20T05:55:11;5.20;;;2.80;;
3847;SDS011;1939;48.720;9.166;2023-07-20T05:57:36;3.77;;;2.53;;
3847;SDS011;1939;48.720;9.166;2023-07-20T06:00:05;5.23;;;2.93;;
3847;SDS011;1939;48.720;9.166;2023-07-20T06:02:30;4.40;;;2.57;;
3847;SDS011;1939;48.720;9.166;2023-07-20T06:04:57;2.30;;;1.97;;
3847;SDS011;1939;48.720;9.166;2023-07-20T06:07:23;6.30;;;3.53;;
3847;SDS011;1939;48.720;9.166;2023-07-20T06:09:48;5.03;;;2.13;;
3847;SDS011;1939;48.720;9.166;2023-07-20T06:12:13;6.60;;;2.50;;
3847;SDS011;1939;48.720;9.166;2023-07-20T06:14:38;4.40;;;2.33;;
3847;SDS011;1939;48.720;9.166;2023-07-20T06:17:04;4.17;;;3.10;;
3847;SDS011;1939;48.720;9.166;2023-07-20T06:19:29;6.60;;;2.57;;
3847;SDS011;1939;48.720;9.166;2023-07-20T06:21:54;9.83;;;2.80;;
3847;SDS011;1939;48.720;9.166;2023-07-20T06:24:19;7.83;;;2.83;;
3847;SDS011;1939;48.720;9.166;2023-07-20T06:26:45;5.67;;;2.53;;
3847;SDS011;1939;48.720;9.166;2023-07-20T06:29:10;4.63;;;2.30;;
3847;SDS011;1939;48.720;9.166;2023-07-20T06:31:35;8.40;;;2.90;;
3847;SDS011;1939;48.720;9.166;2023-07-20T06:34:01;6.60;;;2.77;;
3847;SDS011;1939;48.720;9.166;2023-07-20T06:36:26;5.47;;;3.30;;
3847;SDS011;1939;48.720;9.166;2023-07-20T06:38:52;5.20;;;2.63;;
3847;SDS011;1939;48.720;9.166;2023-07-20T06:41:17;8.20;;;2.50;;
3847;SDS011;1939;48.720;9.166;2023-07-20T06:43:42;19.10;;;2.80;;
3847;SDS011;1939;48.720;9.166;2023-07-20T06:46:07;4.00;;;2.40;;
3847;SDS011;1939;48.720;9.166;2023-07-20T06:48:33;5.83;;;2.60;;
3847;SDS011;1939;48.720;9.166;2023-07-20T06:50:58;6.30;;;2.80;;
3847;SDS011;1939;48.720;9.166;2023-07-20T06:53:24;6.50;;;2.33;;
3847;SDS011;1939;48.720;9.166;2023-07-20T06:55:49;9.27;;;3.23;;
3847;SDS011;1939;48.720;9.166;2023-07-20T06:58:15;8.37;;;2.67;;
3847;SDS011;1939;48.720;9.166;2023-07-20T07:00:40;6.03;;;2.93;;
3847;SDS011;1939;48.720;9.166;2023-07-20T07:03:05;10.10;;;2.30;;
3847;SDS011;1939;48.720;9.166;2023-07-20T07:05:30;3.97;;;2.47;;
3847;SDS011;1939;48.720;9.166;2023-07-20T07:07:56;8.70;;;2.50;;
3847;SDS011;1939;48.720;9.166;2023-07-20T07:10:21;3.00;;;2.37;;
3847;SDS011;1939;48.720;9.166;2023-07-20T07:12:46;3.47;;;2.10;;
3847;SDS011;1939;48.720;9.166;2023-07-20T07:15:11;4.60;;;2.50;;
3847;SDS011;1939;48.720;9.166;2023-07-20T07:17:36;2.70;;;2.13;;
3847;SDS011;1939;48.720;9.166;2023-07-20T07:20:02;8.63;;;2.50;;
3847;SDS011;1939;48.720;9.166;2023-07-20T07:22:28;6.23;;;2.40;;
3847;SDS011;1939;48.720;9.166;2023-07-20T07:24:54;4.30;;;2.07;;
3847;SDS011;1939;48.720;9.166;2023-07-20T07:27:19;2.50;;;1.93;;
3847;SDS011;1939;48.720;9.166;2023-07-20T07:29:44;3.00;;;2.27;;
3847;SDS011;1939;48.720;9.166;2023-07-20T07:32:10;2.50;;;1.60;;
3847;SDS011;1939;48.720;9.166;2023-07-20T07:34:36;3.83;;;1.73;;
3847;SDS011;1939;48.720;9.166;2023-07-20T07:37:01;1.93;;;1.57;;
3847;SDS011;1939;48.720;9.166;2023-07-20T07:39:26;7.17;;;2.40;;
3847;SDS011;1939;48.720;9.166;2023-07-20T07:41:55;2.90;;;2.10;;
3847;SDS011;1939;48.720;9.166;2023-07-20T07:44:21;3.27;;;1.60;;
3847;SDS011;1939;48.720;9.166;2023-07-20T07:46:46;3.43;;;1.90;;
3847;SDS011;1939;48.720;9.166;2023-07-20T07:49:11;2.20;;;1.70;;
3847;SDS011;1939;48.720;9.166;2023-07-20T07:51:36;2.60;;;2.33;;
3847;SDS011;1939;48.720;9.166;2023-07-20T07:54:02;7.43;;;2.10;;
3847;SDS011;1939;48.720;9.166;2023-07-20T07:56:27;5.50;;;2.20;;
3847;SDS011;1939;48.720;9.166;2023-07-20T07:58:52;3.07;;;2.40;;
3847;SDS011;1939;48.720;9.166;2023-07-20T08:01:17;7.30;;;2.07;;
3847;SDS011;1939;48.720;9.166;2023-07-20T08:03:44;3.20;;;1.83;;
3847;SDS011;1939;48.720;9.166;2023-07-20T08:06:12;3.23;;;2.00;;
3847;SDS011;1939;48.720;9.166;2023-07-20T08:08:37;6.50;;;2.20;;
3847;SDS011;1939;48.720;9.166;2023-07-20T08:11:02;2.50;;;2.03;;
3847;SDS011;1939;48.720;9.166;2023-07-20T08:13:28;9.90;;;2.70;;
3847;SDS011;1939;48.720;9.166;2023-07-20T08:15:53;3.40;;;2.60;;
3847;SDS011;1939;48.720;9.166;2023-07-20T08:18:18;6.87;;;3.10;;
3847;SDS011;1939;48.720;9.166;2023-07-20T08:20:44;3.43;;;2.80;;
3847;SDS011;1939;48.720;9.166;2023-07-20T08:23:09;3.60;;;2.40;;
3847;SDS011;1939;48.720;9.166;2023-07-20T08:25:36;4.13;;;2.90;;
3847;SDS011;1939;48.720;9.166;2023-07-20T08:28:02;6.43;;;2.00;;
3847;SDS011;1939;48.720;9.166;2023-07-20T08:30:38;5.53;;;2.50;;
3847;SDS011;1939;48.720;9.166;2023-07-20T08:33:04;5.73;;;2.40;;
3847;SDS011;1939;48.720;9.166;2023-07-20T08:35:29;3.73;;;1.90;;
3847;SDS011;1939;48.720;9.166;2023-07-20T08:37:54;3.00;;;2.20;;
3847;SDS011;1939;48.720;9.166;2023-07-20T08:40:19;2.70;;;2.17;;
3847;SDS011;1939;48.720;9.166;2023-07-20T08:42:45;3.50;;;1.87;;
3847;SDS011;1939;48.720;9.166;2023-07-20T08:45:10;2.27;;;2.07;;
3847;SDS011;1939;48.720;9.166;2023-07-20T08:47:37;3.47;;;2.13;;
3847;SDS011;1939;48.720;9.166;2023-07-20T08:50:03;4.60;;;2.00;;
3847;SDS011;1939;48.720;9.166;2023-07-20T08:52:31;4.90;;;2.37;;
3847;SDS011;1939;48.720;9.166;2023-07-20T08:54:57;2.67;;;2.20;;
3847;SDS011;1939;48.720;9.166;2023-07-20T08:57:22;2.77;;;1.87;;
3847;SDS011;1939;48.720;9.166;2023-07-20T08:59:47;6.23;;;2.60;;
3847;SDS011;1939;48.720;9.166;2023-07-20T09:02:15;3.43;;;2.17;;
3847;SDS011;1939;48.720;9.166;2023-07-20T09:04:41;8.37;;;2.10;;
3847;SDS011;1939;48.720;9.166;2023-07-20T09:07:08;3.37;;;2.30;;
3847;SDS011;1939;48.720;9.166;2023-07-20T09:09:39;2.73;;;2.13;;
3847;SDS011;1939;48.720;9.166;2023-07-20T09:12:04;3.60;;;2.37;;
3847;SDS011;1939;48.720;9.166;2023-07-20T09:14:30;1.90;;;1.70;;
3847;SDS011;1939;48.720;9.166;2023-07-20T09:16:56;4.23;;;2.10;;
3847;SDS011;1939;48.720;9.166;2023-07-20T09:19:22;3.70;;;2.00;;
3847;SDS011;1939;48.720;9.166;2023-07-20T09:21:51;4.40;;;2.13;;
3847;SDS011;1939;48.720;9.166;2023-07-20T09:24:20;3.33;;;2.00;;
3847;SDS011;1939;48.720;9.166;2023-07-20T09:26:46;4.23;;;2.17;;
3847;SDS011;1939;48.720;9.166;2023-07-20T09:29:13;2.53;;;2.30;;
3847;SDS011;1939;48.720;9.166;2023-07-20T09:31:38;5.47;;;2.23;;
3847;SDS011;1939;48.720;9.166;2023-07-20T09:34:05;2.60;;;1.90;;
3847;SDS011;1939;48.720;9.166;2023-07-20T09:36:35;2.37;;;1.60;;
3847;SDS011;1939;48.720;9.166;2023-07-20T09:39:01;8.07;;;2.30;;
3847;SDS011;1939;48.720;9.166;2023-07-20T09:41:26;2.20;;;1.93;;
3847;SDS011;1939;48.720;9.166;2023-07-20T09:43:52;4.23;;;2.53;;
3847;SDS011;1939;48.720;9.166;2023-07-20T09:46:18;3.17;;;2.60;;
3847;SDS011;1939;48.720;9.166;2023-07-20T09:48:51;6.30;;;2.17;;
3847;SDS011;1939;48.720;9.166;2023-07-20T09:51:18;4.30;;;2.50;;
3847;SDS011;1939;48.720;9.166;2023-07-20T09:53:45;4.53;;;2.50;;
3847;SDS011;1939;48.720;9.166;2023-07-20T09:56:12;6.37;;;1.83;;
3847;SDS011;1939;48.720;9.166;2023-07-20T09:58:37;2.43;;;1.80;;
3847;SDS011;1939;48.720;9.166;2023-07-20T10:01:03;2.23;;;1.70;;
3847;SDS011;1939;48.720;9.166;2023-07-20T10:03:32;2.63;;;1.80;;
3847;SDS011;1939;48.720;9.166;2023-07-20T10:06:02;4.20;;;2.20;;
3847;SDS011;1939;48.720;9.166;2023-07-20T10:08:29;2.30;;;1.43;;
3847;SDS011;1939;48.720;9.166;2023-07-20T10:10:55;2.97;;;2.23;;
3847;SDS011;1939;48.720;9.166;2023-07-20T10:13:25;2.63;;;1.40;;
3847;SDS011;1939;48.720;9.166;2023-07-20T10:15:50;3.47;;;1.67;;
3847;SDS011;1939;48.720;9.166;2023-07-20T10:21:02;2.23;;;1.73;;
3847;SDS011;1939;48.720;9.166;2023-07-20T10:23:29;1.93;;;1.70;;
3847;SDS011;1939;48.720;9.166;2023-07-20T10:25:54;1.67;;;1.50;;
3847;SDS011;1939;48.720;9.166;2023-07-20T10:28:19;2.60;;;1.37;;
3847;SDS011;1939;48.720;9.166;2023-07-20T10:30:45;4.60;;;1.33;;
3847;SDS011;1939;48.720;9.166;2023-07-20T10:33:10;2.30;;;0.93;;
3847;SDS011;1939;48.720;9.166;2023-07-20T10:38:37;1.70;;;1.60;;
3847;SDS011;1939;48.720;9.166;2023-07-20T10:41:02;1.20;;;1.10;;
3847;SDS011;1939;48.720;9.166;2023-07-20T10:43:28;4.53;;;1.70;;
3847;SDS011;1939;48.720;9.166;2023-07-20T10:45:53;2.50;;;1.40;;
3847;SDS011;1939;48.720;9.166;2023-07-20T10:48:22;8.77;;;1.80;;
3847;SDS011;1939;48.720;9.166;2023-07-20T10:53:32;2.10;;;1.50;;
3847;SDS011;1939;48.720;9.166;2023-07-20T10:56:09;2.40;;;1.33;;
3847;SDS011;1939;48.720;9.166;2023-07-20T10:58:36;4.07;;;1.37;;
3847;SDS011;1939;48.720;9.166;2023-07-20T11:01:02;1.67;;;1.53;;
3847;SDS011;1939;48.720;9.166;2023-07-20T11:03:34;2.67;;;1.70;;
3847;SDS011;1939;48.720;9.166;2023-07-20T11:06:00;2.33;;;1.77;;
3847;SDS011;1939;48.720;9.166;2023-07-20T11:08:45;5.07;;;1.70;;
3847;SDS011;1939;48.720;9.166;2023-07-20T11:11:23;1.93;;;1.20;;
3847;SDS011;1939;48.720;9.166;2023-07-20T11:13:59;2.10;;;1.90;;
3847;SDS011;1939;48.720;9.166;2023-07-20T11:19:02;3.03;;;1.40;;
3847;SDS011;1939;48.720;9.166;2023-07-20T11:21:28;1.97;;;1.67;;
3847;SDS011;1939;48.720;9.166;2023-07-20T11:23:53;1.57;;;1.47;;
3847;SDS011;1939;48.720;9.166;2023-07-20T11:26:20;1.77;;;1.40;;
3847;SDS011;1939;48.720;9.166;2023-07-20T11:28:48;2.27;;;1.47;;
3847;SDS011;1939;48.720;9.166;2023-07-20T11:31:14;1.80;;;1.13;;
3847;SDS011;1939;48.720;9.166;2023-07-20T11:33:41;2.40;;;1.30;;
3847;SDS011;1939;48.720;9.166;2023-07-20T11:36:07;5.93;;;2.03;;
3847;SDS011;1939;48.720;9.166;2023-07-20T11:38:33;2.70;;;1.50;;
3847;SDS011;1939;48.720;9.166;2023-07-20T11:40:58;1.97;;;1.50;;
3847;SDS011;1939;48.720;9.166;2023-07-20T11:43:23;3.07;;;1.77;;
3847;SDS011;1939;48.720;9.166;2023-07-20T11:45:49;4.00;;;1.67;;
3847;SDS011;1939;48.720;9.166;2023-07-20T11:48:17;5.77;;;2.10;;
3847;SDS011;1939;48.720;9.166;2023-07-20T11:50:43;2.47;;;1.70;;
3847;SDS011;1939;48.720;9.166;2023-07-20T11:53:09;3.40;;;1.50;;
3847;SDS011;1939;48.720;9.166;2023-07-20T11:55:34;1.47;;;1.30;;
3847;SDS011;1939;48.720;9.166;2023-07-20T11:58:06;1.57;;;1.47;;
3847;SDS011;1939;48.720;9.166;2023-07-20T12:00:35;7.97;;;1.90;;
3847;SDS011;1939;48.720;9.166;2023-07-20T12:03:00;2.60;;;1.50;;
3847;SDS011;1939;48.720;9.166;2023-07-20T12:05:26;5.00;;;1.60;;
3847;SDS011;1939;48.720;9.166;2023-07-20T12:07:51;1.90;;;1.70;;
3847;SDS011;1939;48.720;9.166;2023-07-20T12:10:22;2.30;;;1.13;;
3847;SDS011;1939;48.720;9.166;2023-07-20T12:12:48;1.30;;;1.20;;
3847;SDS011;1939;48.720;9.166;2023-07-20T12:15:14;2.33;;;1.53;;
3847;SDS011;1939;48.720;9.166;2023-07-20T12:17:46;1.60;;;1.33;;
3847;SDS011;1939;48.720;9.166;2023-07-20T12:20:11;3.53;;;1.40;;
3847;SDS011;1939;48.720;9.166;2023-07-20T12:22:40;1.40;;;1.30;;
3847;SDS011;1939;48.720;9.166;2023-07-20T12:25:08;2.30;;;1.57;;
3847;SDS011;1939;48.720;9.166;2023-07-20T12:27:36;1.20;;;1.10;;
3847;SDS011;1939;48.720;9.166;2023-07-20T12:30:03;1.57;;;1.43;;
3847;SDS011;1939;48.720;9.166;2023-07-20T12:32:29;1.80;;;1.37;;
3847;SDS011;1939;48.720;9.166;2023-07-20T12:34:54;1.87;;;1.73;;
3847;SDS011;1939;48.720;9.166;2023-07-20T12:37:20;6.53;;;1.67;;
3847;SDS011;1939;48.720;9.166;2023-07-20T12:39:45;2.47;;;1.43;;
3847;SDS011;1939;48.720;9.166;2023-07-20T12:42:12;1.90;;;1.37;;
3847;SDS011;1939;48.720;9.166;2023-07-20T12:44:37;1.77;;;1.60;;
3847;SDS011;1939;48.720;9.166;2023-07-20T12:47:03;1.63;;;1.20;;
3847;SDS011;1939;48.720;9.166;2023-07-20T12:49:30;2.93;;;1.70;;
3847;SDS011;1939;48.720;9.166;2023-07-20T12:51:55;2.23;;;1.63;;
3847;SDS011;1939;48.720;9.166;2023-07-20T12:54:20;2.00;;;1.33;;
3847;SDS011;1939;48.720;9.166;2023-07-20T12:56:46;3.00;;;1.40;;
3847;SDS011;1939;48.720;9.166;2023-07-20T12:59:11;2.57;;;1.47;;
3847;SDS011;1939;48.720;9.166;2023-07-20T13:01:36;2.83;;;1.30;;
3847;SDS011;1939;48.720;9.166;2023-07-20T13:04:03;2.03;;;1.50;;
3847;SDS011;1939;48.720;9.166;2023-07-20T13:06:28;2.90;;;2.40;;
3847;SDS011;1939;48.720;9.166;2023-07-20T13:08:53;2.50;;;1.63;;
3847;SDS011;1939;48.720;9.166;2023-07-20T13:11:21;1.53;;;1.10;;
3847;SDS011;1939;48.720;9.166;2023-07-20T13:13:47;2.30;;;1.30;;
3847;SDS011;1939;48.720;9.166;2023-07-20T13:16:12;4.60;;;1.50;;
3847;SDS011;1939;48.720;9.166;2023-07-20T13:18:37;1.23;;;1.13;;
3847;SDS011;1939;48.720;9.166;2023-07-20T13:21:03;2.30;;;1.50;;
3847;SDS011;1939;48.720;9.166;2023-07-20T13:23:28;2.40;;;1.50;;
3847;SDS011;1939;48.720;9.166;2023-07-20T13:25:53;1.37;;;1.27;;
3847;SDS011;1939;48.720;9.166;2023-07-20T13:28:18;2.13;;;1.93;;
3847;SDS011;1939;48.720;9.166;2023-07-20T13:30:44;1.37;;;1.27;;
3847;SDS011;1939;48.720;9.166;2023-07-20T13:33:11;3.90;;;1.80;;
3847;SDS011;1939;48.720;9.166;2023-07-20T13:35:36;6.20;;;1.67;;
3847;SDS011;1939;48.720;9.166;2023-07-20T13:38:01;2.20;;;1.50;;
3847;SDS011;1939;48.720;9.166;2023-07-20T13:40:26;3.90;;;1.50;;
3847;SDS011;1939;48.720;9.166;2023-07-20T13:42:52;5.30;;;1.20;;
3847;SDS011;1939;48.720;9.166;2023-07-20T13:45:17;2.03;;;1.53;;
3847;SDS011;1939;48.720;9.166;2023-07-20T13:47:42;1.70;;;1.30;;
3847;SDS011;1939;48.720;9.166;2023-07-20T13:50:08;1.60;;;1.20;;
3847;SDS011;1939;48.720;9.166;2023-07-20T13:52:33;2.20;;;1.50;;
3847;SDS011;1939;48.720;9.166;2023-07-20T13:54:59;1.20;;;1.10;;
3847;SDS011;1939;48.720;9.166;2023-07-20T13:57:24;2.40;;;1.47;;
3847;SDS011;1939;48.720;9.166;2023-07-20T13:59:49;1.57;;;1.47;;
3847;SDS011;1939;48.720;9.166;2023-07-20T14:02:14;4.10;;;1.50;;
3847;SDS011;1939;48.720;9.166;2023-07-20T14:04:40;2.13;;;1.37;;
3847;SDS011;1939;48.720;9.166;2023-07-20T14:07:06;1.67;;;1.30;;
3847;SDS011;1939;48.720;9.166;2023-07-20T14:09:31;1.20;;;1.07;;
3847;SDS011;1939;48.720;9.166;2023-07-20T14:11:56;1.50;;;1.40;;
3847;SDS011;1939;48.720;9.166;2023-07-20T14:14:22;2.10;;;1.90;;
3847;SDS011;1939;48.720;9.166;2023-07-20T14:16:47;2.53;;;1.60;;
3847;SDS011;1939;48.720;9.166;2023-07-20T14:19:12;1.97;;;1.30;;
3847;SDS011;1939;48.720;9.166;2023-07-20T14:21:37;2.10;;;1.57;;
3847;SDS011;1939;48.720;9.166;2023-07-20T14:24:03;4.90;;;1.50;;
3847;SDS011;1939;48.720;9.166;2023-07-20T14:26:28;4.03;;;1.50;;
3847;SDS011;1939;48.720;9.166;2023-07-20T14:28:54;2.80;;;1.80;;
3847;SDS011;1939;48.720;9.166;2023-07-20T14:31:19;1.40;;;1.30;;
3847;SDS011;1939;48.720;9.166;2023-07-20T14:33:44;1.90;;;1.57;;
3847;SDS011;1939;48.720;9.166;2023-07-20T14:36:10;3.13;;;1.30;;
3847;SDS011;1939;48.720;9.166;2023-07-20T14:38:35;3.00;;;1.67;;
3847;SDS011;1939;48.720;9.166;2023-07-20T14:41:01;2.13;;;1.50;;
3847;SDS011;1939;48.720;9.166;2023-07-20T14:43:26;2.97;;;1.83;;
3847;SDS011;1939;48.720;9.166;2023-07-20T14:45:51;1.70;;;1.33;;
3847;SDS011;1939;48.720;9.166;2023-07-20T14:48:17;1.77;;;1.50;;
3847;SDS011;1939;48.720;9.166;2023-07-20T14:50:42;2.10;;;1.00;;
3847;SDS011;1939;48.720;9.166;2023-07-20T14:53:10;8.70;;;2.10;;
3847;SDS011;1939;48.720;9.166;2023-07-20T14:55:35;1.90;;;1.70;;
3847;SDS011;1939;48.720;9.166;2023-07-20T14:58:01;2.20;;;1.60;;
3847;SDS011;1939;48.720;9.166;2023-07-20T15:00:26;2.80;;;1.83;;
3847;SDS011;1939;48.720;9.166;2023-07-20T15:02:51;7.30;;;1.50;;
3847;SDS011;1939;48.720;9.166;2023-07-20T15:05:21;2.50;;;1.47;;
3847;SDS011;1939;48.720;9.166;2023-07-20T15:07:47;6.20;;;1.50;;
3847;SDS011;1939;48.720;9.166;2023-07-20T15:10:12;3.00;;;1.30;;
3847;SDS011;1939;48.720;9.166;2023-07-20T15:12:37;3.37;;;2.00;;
3847;SDS011;1939;48.720;9.166;2023-07-20T15:15:03;1.60;;;1.50;;
3847;SDS011;1939;48.720;9.166;2023-07-20T15:17:30;3.40;;;1.77;;
3847;SDS011;1939;48.720;9.166;2023-07-20T15:19:55;1.60;;;1.50;;
3847;SDS011;1939;48.720;9.166;2023-07-20T15:22:20;3.80;;;1.60;;
3847;SDS011;1939;48.720;9.166;2023-07-20T15:24:47;2.83;;;1.87;;
3847;SDS011;1939;48.720;9.166;2023-07-20T15:27:12;2.10;;;1.83;;